Flight Track Log - Related Links

Times and Time Zones

All times are in EDT time to prevent confusion due to time zone crossing. See the N30VP flight status page for this flight to view local times or setup timezone preferences in your user account.

Time Position Orientation Groundspeed Altitude Reporting Facility
EDT Latitude Longitude Course Direction KTS MPH feet Rate Location/Type
Thu 03:33:30 PM 44.9667 -93.0833 125° Southeast 203 234 2,900  Level Minneapolis TRACON
Thu 03:34:48 PM 45.0389 -93.0194 32° Northeast 237 273 7,000 3,600 Climbing Minneapolis Center
Thu 03:35:50 PM 45.0242 -92.9194 102° East 265 305 11,300 3,339 Climbing Minneapolis Center
Thu 03:36:52 PM 44.9633 -92.8272 133° Southeast 320 368 13,900 2,832 Climbing Minneapolis Center
Thu 03:37:55 PM 44.8958 -92.7239 133° Southeast 352 405 17,200 3,072 Climbing Minneapolis Center
Thu 03:38:57 PM 44.8267 -92.6186 133° Southeast 360 414 20,300 2,952 Climbing Minneapolis Center
Thu 03:39:00 PM 44.5681 -92.2361 125° Southeast  Level FlightAware Approximate
Thu 03:39:59 PM 44.7419 -92.4894 133° Southeast 368 423 23,300  Level Minneapolis Center
Thu 03:41:01 PM 44.6656 -92.3733 133° Southeast 392 451 25,100 2,032 Climbing Minneapolis Center
Thu 03:42:03 PM 44.5853 -92.2547 134° Southeast 414 476 27,500 1,984 Climbing Minneapolis Center
Thu 03:43:05 PM 44.5125 -92.1233 128° Southeast 434 499 29,200 1,694 Climbing Minneapolis Center
Thu 03:44:07 PM 44.4403 -91.9867 126° Southeast 435 501 31,000 1,742 Climbing Minneapolis Center
Thu 03:45:09 PM 44.3697 -91.8489 126° Southeast 436 502 32,800 1,776 Climbing Minneapolis Center
Thu 03:46:12 PM 44.3000 -91.6697 118° Southeast 437 503 34,700 1,680 Climbing Minneapolis Center
Thu 03:47:14 PM 44.2433 -91.5228 118° Southeast 437 503 36,300 1,403 Climbing Minneapolis Center
Thu 03:48:16 PM 44.1872 -91.3772 118° Southeast 434 499 37,600 1,113 Climbing Minneapolis Center
Thu 03:49:18 PM 44.1347 -91.2325 117° Southeast 429 494 38,600 677 Climbing Minneapolis Center
Thu 03:50:20 PM 44.0772 -91.0853 118° Southeast 429 494 39,000 194 Climbing Minneapolis Center
Thu 03:51:22 PM 44.0058 -90.9028 118° Southeast 444 511 39,000  Level Minneapolis Center
Thu 03:52:24 PM 43.9447 -90.7447 118° Southeast 460 529 39,000  Level Minneapolis Center
Thu 03:53:26 PM 43.8811 -90.5844 119° Southeast 472 543 39,000  Level Minneapolis Center
Thu 03:54:29 PM 43.8267 -90.4350 117° Southeast 473 544 39,000  Level Minneapolis Center
Thu 03:55:31 PM 43.7772 -90.2278 108° East 474 545 39,000  Level Minneapolis Center
Thu 03:56:33 PM 43.7333 -90.0569 110° East 474 545 39,000  Level Minneapolis Center
Thu 03:57:35 PM 43.6900 -89.8875 109° East 473 544 39,000  Level Minneapolis Center
Thu 03:58:05 PM 43.6644 -89.7858 109° East 472 543 39,000  Level Chicago Center
Thu 03:59:07 PM 43.6197 -89.6153 110° East 472 543 39,000  Level Chicago Center
Thu 04:00:09 PM 43.5750 -89.4458 110° East 471 542 39,000  Level Chicago Center
Thu 04:01:11 PM 43.5303 -89.2764 110° East 472 543 39,000  Level Chicago Center
Thu 04:02:13 PM 43.4850 -89.1075 110° East 472 543 39,000  Level Chicago Center
Thu 04:03:16 PM 43.4397 -88.9392 110° East 472 543 39,000  Level Chicago Center
Thu 04:04:18 PM 43.3853 -88.7411 111° Southeast 470 541 39,000  Level Chicago Center
Thu 04:05:20 PM 43.3397 -88.5750 111° Southeast 474 545 39,000  Level Chicago Center
Thu 04:06:22 PM 43.2942 -88.4089 111° Southeast 477 549 39,000  Level Chicago Center
Thu 04:07:24 PM 43.2397 -88.2083 110° East 477 549 39,000  Level Chicago Center
Thu 04:08:26 PM 43.1942 -88.0417 111° Southeast 472 543 39,000  Level Chicago Center
Thu 04:09:28 PM 43.1483 -87.8750 111° Southeast 472 543 39,000  Level Chicago Center
Thu 04:10:30 PM 43.1014 -87.7078 111° Southeast 472 543 39,000  Level Chicago Center
Thu 04:11:33 PM 43.0544 -87.5397 111° Southeast 472 543 39,000  Level Chicago Center
Thu 04:12:35 PM 43.0000 -87.3494 111° Southeast 472 543 39,000  Level Chicago Center
Thu 04:13:37 PM 42.9503 -87.1814 112° Southeast 473 544 39,000  Level Chicago Center
Thu 04:14:39 PM 42.9031 -87.0158 111° Southeast 473 544 39,000  Level Chicago Center
Thu 04:15:41 PM 42.8550 -86.8503 112° Southeast 473 544 39,000  Level Chicago Center
Thu 04:16:43 PM 42.8064 -86.6850 112° Southeast 473 544 39,000  Level Chicago Center
Thu 04:17:45 PM 42.7472 -86.4872 112° Southeast 473 544 39,000  Level Chicago Center
Thu 04:18:47 PM 42.6986 -86.3236 112° Southeast 473 544 39,000  Level Chicago Center
Thu 04:19:50 PM 42.6494 -86.1569 112° Southeast 474 545 39,000  Level Chicago Center
Thu 04:20:52 PM 42.6006 -85.9925 112° Southeast 474 545 39,000  Level Chicago Center
Thu 04:21:54 PM 42.5403 -85.7958 113° Southeast 475 547 39,000  Level Chicago Center
Thu 04:22:56 PM 42.4900 -85.6344 113° Southeast 473 544 39,000  Level Chicago Center
Thu 04:23:58 PM 42.4414 -85.4700 112° Southeast 473 544 39,000  Level Chicago Center
Thu 04:25:00 PM 42.3922 -85.3078 112° Southeast 473 544 39,000  Level Chicago Center
Thu 04:26:02 PM 42.3422 -85.1436 112° Southeast 472 543 39,000  Level Chicago Center
Thu 04:27:04 PM 42.2911 -84.9811 113° Southeast 473 544 39,000  Level Chicago Center
Thu 04:28:07 PM 42.2297 -84.7869 113° Southeast 472 543 39,000  Level Chicago Center
Thu 04:29:09 PM 42.1775 -84.6239 113° Southeast 473 544 39,000  Level Chicago Center
Thu 04:30:11 PM 42.1261 -84.4617 113° Southeast 473 544 39,000  Level Chicago Center
Thu 04:31:13 PM 42.0742 -84.2994 113° Southeast 473 544 39,000  Level Chicago Center
Thu 04:32:15 PM 42.0231 -84.1375 113° Southeast 473 544 39,000  Level Chicago Center
Thu 04:33:28 PM 41.9561 -83.9400 114° Southeast 473 544 39,000  Level Cleveland Center
Thu 04:34:31 PM 41.8928 -83.7489 114° Southeast 472 543 39,000  Level Cleveland Center
Thu 04:35:33 PM 41.8408 -83.5889 114° Southeast 472 543 39,000  Level Cleveland Center
Thu 04:36:35 PM 41.7875 -83.4278 114° Southeast 473 544 39,000  Level Cleveland Center
Thu 04:37:37 PM 41.7347 -83.2672 114° Southeast 474 545 39,000  Level Cleveland Center
Thu 04:38:39 PM 41.6800 -83.1078 115° Southeast 474 545 39,000  Level Cleveland Center
Thu 04:39:41 PM 41.6233 -82.9356 114° Southeast 476 548 39,000  Level Cleveland Center
Thu 04:40:43 PM 41.5586 -82.7458 114° Southeast 478 550 39,000  Level Cleveland Center
Thu 04:41:46 PM 41.5036 -82.5842 114° Southeast 478 550 39,000  Level Cleveland Center
Thu 04:42:48 PM 41.4478 -82.4217 115° Southeast 478 550 39,000  Level Cleveland Center
Thu 04:43:50 PM 41.3925 -82.2608 115° Southeast 478 550 39,000  Level Cleveland Center
Thu 04:44:52 PM 41.3325 -82.1131 118° Southeast 479 551 39,000  Level Cleveland Center
Thu 04:45:54 PM 41.2419 -81.9417 125° Southeast 476 548 39,000  Level Cleveland Center
Thu 04:46:56 PM 41.1672 -81.7986 125° Southeast 475 547 39,000  Level Cleveland Center
Thu 04:47:58 PM 41.0919 -81.6519 124° Southeast 476 548 39,000  Level Cleveland Center
Thu 04:49:00 PM 41.0167 -81.5100 125° Southeast 475 547 39,000  Level Cleveland Center
Thu 04:50:03 PM 40.9408 -81.3669 125° Southeast 473 544 39,000  Level Cleveland Center
Thu 04:51:05 PM 40.8533 -81.2014 125° Southeast 471 542 39,000  Level Cleveland Center
Thu 04:52:07 PM 40.7769 -81.0575 125° Southeast 472 543 39,000  Level Cleveland Center
Thu 04:53:09 PM 40.7022 -80.9197 126° Southeast 470 541 39,000 -192 Level Cleveland Center
Thu 04:54:12 PM 40.6269 -80.7794 125° Southeast 470 541 38,600 -1,152 Descending Cleveland Center
Thu 04:55:14 PM 40.5511 -80.6381 125° Southeast 472 543 36,600 -1,887 Descending Cleveland Center
Thu 04:56:16 PM 40.4753 -80.4981 125° Southeast 472 543 34,700 -2,000 Descending Cleveland Center
Thu 04:57:17 PM 40.3850 -80.3350 126° Southeast 470 541 32,500 -2,081 Descending Cleveland Center
Thu 04:58:20 PM 40.3094 -80.2003 126° Southeast 471 542 30,400 -2,064 Descending Cleveland Center
Thu 04:59:22 PM 40.2350 -80.0644 126° Southeast 473 544 28,200 -2,226 Descending Cleveland Center
Thu 05:00:24 PM 40.1461 -79.9025 126° Southeast 462 532 25,800 -2,081 Descending Cleveland Center
Thu 05:01:26 PM 40.0722 -79.7708 126° Southeast 453 521 23,900 -1,839 Descending Cleveland Center
Thu 05:02:28 PM 40.0000 -79.6411 126° Southeast 444 511 22,000 -1,839 Descending Cleveland Center
Thu 05:03:30 PM 39.9283 -79.5119 126° Southeast 442 509 20,100 -1,839 Descending Cleveland Center
Thu 05:04:32 PM 39.8572 -79.3861 126° Southeast 436 502 18,200 -1,632 Descending Cleveland Center
Thu 05:05:35 PM 39.7908 -79.2669 126° Southeast 411 473 16,700 -1,632 Descending Cleveland Center
Thu 05:06:37 PM 39.7125 -79.1311 127° Southeast 396 456 14,800 -1,694 Descending Cleveland Center
Thu 05:07:39 PM 39.6497 -79.0203 126° Southeast 385 443 13,200 -1,500 Descending Cleveland Center
Thu 05:08:41 PM 39.5917 -78.9133 125° Southeast 376 433 11,700 -1,065 Descending Cleveland Center
Thu 05:09:43 PM 39.5383 -78.8033 122° Southeast 366 421 11,000 -290 Descending Cleveland Center
Thu 05:10:45 PM 39.4858 -78.6872 120° Southeast 308 354 11,100 48 Climbing Cleveland Center
Thu 05:11:47 PM 39.4381 -78.6011 126° Southeast 297 342 11,100 -379 Level Cleveland Center
Thu 05:12:20 PM 39.4144 -78.5653 130° Southeast 300 345 10,500 -64 Descending Washington Center
Thu 05:13:21 PM 39.3642 -78.4856 129° Southeast 290 334 11,000 -1,820 Climbing Washington Center
Thu 05:14:22 PM 39.3161 -78.4058 128° Southeast 284 327 6,800 -2,975 Descending Washington Center
Thu 05:15:22 PM 39.2678 -78.3314 130° Southeast 279 321 5,000 -915 Descending Washington Center
Thu 05:16:20 PM 39.2175 -78.2492 128° Southeast 279 321 5,000  Level Washington Center

Login

Don't have an account? Register now (free) for customized features, flight alerts, and more!